Time;durP1;ratioP1;P1;durP2;ratioP2;P2;SDS_P1;SDS_P2;PMS_P1;PMS_P2;Temp;Humidity;BMP_temperature;BMP_pressure;BME280_temperature;BME280_humidity;BME280_pressure;Samples;Min_cycle;Max_cycle;Signal;HPM_P1;HPM_P2
2022/11/16 00:00:17;;;;;;;;;5.75;2.50;;;;;11.25;78.95;99429.41;4999749;28;45324;-61
2022/11/16 00:02:43;;;;;;;;;3.80;1.80;;;;;10.98;78.70;99386.09;5000039;28;45360;-60
2022/11/16 00:05:08;;;;;;;;;1.50;1.50;;;;;11.20;78.69;99431.22;4982144;28;45546;-60
2022/11/16 00:07:34;;;;;;;;;4.00;3.00;;;;;11.21;79.30;99430.97;4999539;28;45486;-61
2022/11/16 00:09:59;;;;;;;;;3.50;2.75;;;;;11.22;79.33;99427.13;5000491;28;45544;-61
2022/11/16 00:12:25;;;;;;;;;3.00;2.50;;;;;11.22;79.04;99440.88;4999864;28;45551;-61
2022/11/16 00:14:50;;;;;;;;;5.00;4.50;;;;;11.00;78.60;99417.97;4999160;28;46223;-60
2022/11/16 00:17:16;;;;;;;;;4.00;4.00;;;;;11.16;79.21;99444.59;4990615;28;45443;-61
2022/11/16 00:19:42;;;;;;;;;3.75;3.75;;;;;11.16;79.05;99424.56;5000654;28;45289;-61
2022/11/16 00:22:07;;;;;;;;;10.00;6.75;;;;;11.19;79.13;99441.38;5001729;28;45416;-60
2022/11/16 00:24:33;;;;;;;;;3.75;3.75;;;;;11.20;78.96;99436.72;5019027;28;47539;-61
2022/11/16 00:26:58;;;;;;;;;3.00;3.00;;;;;11.21;79.35;99439.19;5002908;28;45864;-60
2022/11/16 00:29:25;;;;;;;;;1.00;1.00;;;;;11.21;79.07;99433.72;5020909;28;45584;-59
2022/11/16 00:31:51;;;;;;;;;3.20;2.00;;;;;11.20;79.33;99432.06;5002939;28;45405;-60
2022/11/16 00:34:17;;;;;;;;;3.20;3.20;;;;;11.15;79.34;99434.69;5020798;28;46033;-60
2022/11/16 00:36:43;;;;;;;;;2.80;2.80;;;;;11.19;78.85;99435.03;5020712;28;45461;-60
2022/11/16 00:39:12;;;;;;;;;5.00;3.75;;;;;11.16;78.76;99433.63;5020883;28;45370;-58
2022/11/16 00:41:37;;;;;;;;;4.60;3.80;;;;;11.21;79.37;99432.91;5021028;28;45399;-59
2022/11/16 00:44:03;;;;;;;;;1.25;1.25;;;;;11.19;79.10;99427.66;5020579;28;45876;-60
2022/11/16 00:46:28;;;;;;;;;4.00;3.00;;;;;11.18;78.75;99425.97;5020631;28;45325;-59
2022/11/16 00:48:54;;;;;;;;;2.00;2.00;;;;;11.15;78.84;99433.88;5020525;28;45380;-61
2022/11/16 00:51:19;;;;;;;;;2.00;2.00;;;;;11.16;78.93;99428.13;5021328;28;45368;-59
2022/11/16 00:53:45;;;;;;;;;4.00;2.75;;;;;10.94;78.99;99393.16;5018066;28;45863;-59
2022/11/16 00:56:10;;;;;;;;;1.75;1.75;;;;;11.03;79.31;99415.56;5017181;28;45389;-60
2022/11/16 00:58:36;;;;;;;;;3.00;1.75;;;;;10.87;79.27;99377.94;5017576;28;45360;-59
2022/11/16 01:01:05;;;;;;;;;1.75;1.75;;;;;11.16;79.05;99432.81;4999318;28;45379;-60
2022/11/16 01:03:31;;;;;;;;;6.60;4.60;;;;;10.97;78.94;99391.84;5016996;28;45718;-61
2022/11/16 01:06:04;;;;;;;;;4.00;1.75;;;;;11.19;78.38;99446.88;5017180;28;45404;-59
2022/11/16 01:08:29;;;;;;;;;1.00;1.00;;;;;11.21;78.15;99438.38;5017324;28;45421;-59
2022/11/16 01:12:07;;;;;;;;;1.00;1.00;;;;;11.22;78.22;99449.09;4999751;28;45352;-60
2022/11/16 01:13:40;;;;;;;;;1.20;1.20;;;;;11.23;77.86;99434.31;5016788;28;45396;-60
2022/11/16 01:16:06;;;;;;;;;2.00;2.00;;;;;10.99;78.02;99392.41;4977826;28;45831;-61
2022/11/16 01:18:31;;;;;;;;;2.75;1.50;;;;;11.02;77.99;99396.56;4970966;28;45365;-61
2022/11/16 01:20:57;;;;;;;;;1.75;1.75;;;;;11.24;78.38;99433.22;4978815;28;45411;-60
2022/11/16 01:23:22;;;;;;;;;4.50;2.50;;;;;10.98;78.42;99382.50;5003423;28;45992;-59
2022/11/16 01:26:00;;;;;;;;;2.00;1.00;;;;;11.27;78.18;99431.91;4998841;28;45409;-60
2022/11/16 01:28:27;;;;;;;;;1.20;1.20;;;;;11.30;78.10;99431.38;5016506;28;45407;-61
2022/11/16 01:30:53;;;;;;;;;3.00;1.20;;;;;11.21;77.72;99422.72;5017094;28;45843;-59
2022/11/16 01:33:18;;;;;;;;;1.00;1.00;;;;;11.22;77.41;99435.38;5016447;28;45457;-60
2022/11/16 01:35:44;;;;;;;;;4.50;0.75;;;;;11.23;77.48;99434.31;5016708;28;45392;-60
2022/11/16 01:38:09;;;;;;;;;1.25;1.25;;;;;11.23;77.87;99439.81;5016630;28;45433;-60
2022/11/16 01:40:36;;;;;;;;;2.00;2.00;;;;;11.14;77.78;99422.06;5017253;28;45350;-59
2022/11/16 01:43:01;;;;;;;;;1.00;1.00;;;;;11.25;77.45;99440.38;4998915;28;47348;-60
2022/11/16 01:45:36;;;;;;;;;3.00;2.00;;;;;11.15;77.92;99431.94;4998784;28;45247;-59
2022/11/16 01:48:01;;;;;;;;;2.40;2.40;;;;;11.18;77.67;99431.47;4999398;28;45438;-60
2022/11/16 01:50:27;;;;;;;;;1.00;1.00;;;;;11.19;77.07;99433.13;4998953;28;45555;-59
2022/11/16 01:52:58;;;;;;;;;3.25;2.25;;;;;11.17;77.26;99440.78;4999205;28;46411;-60
2022/11/16 01:55:23;;;;;;;;;0.40;0.40;;;;;11.10;77.67;99420.91;4998867;28;45514;-60
2022/11/16 01:57:49;;;;;;;;;1.00;1.00;;;;;11.08;77.97;99432.13;4999074;28;45329;-61
2022/11/16 02:00:16;;;;;;;;;1.25;1.00;;;;;11.05;77.32;99424.38;5016846;28;45573;-61
2022/11/16 02:02:42;;;;;;;;;3.20;2.60;;;;;11.06;77.72;99428.78;5016034;28;46552;-60
2022/11/16 02:05:08;;;;;;;;;1.75;1.00;;;;;11.06;77.66;99423.28;5016332;28;45395;-61
2022/11/16 02:11:12;;;;;;;;;2.40;2.40;;;;;11.02;77.97;99424.03;4968518;28;45340;-60
2022/11/16 02:13:44;;;;;;;;;3.40;0.80;;;;;10.74;77.65;99388.16;5016042;28;46285;-60
2022/11/16 02:16:09;;;;;;;;;1.40;1.40;;;;;10.96;77.82;99423.13;5016236;28;45424;-60
2022/11/16 02:18:49;;;;;;;;;4.75;2.50;;;;;10.95;77.91;99421.47;5016472;28;45794;-60
2022/11/16 02:21:35;;;;;;;;;2.00;0.00;;;;;10.92;77.82;99417.28;4982966;28;45594;-59
2022/11/16 02:24:09;;;;;;;;;0.60;0.60;;;;;10.86;77.74;99410.03;4989837;28;45755;-60
2022/11/16 02:27:02;;;;;;;;;0.80;0.00;;;;;10.89;77.00;99412.28;4978331;28;45727;-60
2022/11/16 02:30:06;;;;;;;;;2.00;2.00;;;;;10.86;77.32;99426.50;4996440;28;45502;-59
2022/11/16 02:32:56;;;;;;;;;4.60;1.80;;;;;10.80;77.35;99428.34;4915887;28;45594;-59
2022/11/16 02:35:28;;;;;;;;;1.20;1.20;;;;;10.67;77.11;99406.69;4883957;28;46333;-59
2022/11/16 02:37:59;;;;;;;;;2.40;1.60;;;;;10.58;76.85;99390.59;4951601;28;45447;-60
2022/11/16 02:40:25;;;;;;;;;2.80;1.80;;;;;10.78;76.84;99427.72;4962530;28;45265;-60
2022/11/16 02:42:57;;;;;;;;;1.80;1.00;;;;;10.76;77.29;99415.31;4962266;28;45319;-59
2022/11/16 02:45:24;;;;;;;;;2.00;0.00;;;;;10.54;76.81;99381.19;4978492;28;46127;-60
2022/11/16 02:47:51;;;;;;;;;2.00;1.80;;;;;10.76;76.76;99418.91;4978259;28;45490;-59
2022/11/16 02:50:17;;;;;;;;;5.80;2.00;;;;;10.55;76.61;99393.84;4978021;28;45302;-60
2022/11/16 02:52:43;;;;;;;;;1.00;0.00;;;;;10.66;76.62;99414.06;4962082;28;45488;-60
2022/11/16 02:55:08;;;;;;;;;1.00;1.00;;;;;10.69;76.88;99416.31;4995528;28;45446;-60
2022/11/16 02:57:41;;;;;;;;;1.25;1.00;;;;;10.64;77.33;99402.50;4995870;28;45448;-59
2022/11/16 03:00:07;;;;;;;;;0.60;0.00;;;;;10.68;76.21;99408.34;4978045;28;45428;-59
2022/11/16 03:02:36;;;;;;;;;1.20;0.00;;;;;10.71;76.19;99425.16;4978249;28;45350;-60
2022/11/16 03:05:04;;;;;;;;;1.20;0.60;;;;;10.73;76.52;99421.31;4994991;28;46617;-60
2022/11/16 03:07:51;;;;;;;;;2.60;1.00;;;;;10.75;76.61;99413.66;4978012;28;45328;-60
2022/11/16 03:11:58;;;;;;;;;0.00;0.00;;;;;10.80;75.69;99413.78;4977631;28;45376;-58
2022/11/16 03:13:03;;;;;;;;;0.80;0.00;;;;;10.75;75.55;99392.56;4980706;28;45475;-59
2022/11/16 03:15:28;;;;;;;;;1.00;0.00;;;;;10.79;75.94;99398.38;4961069;28;45636;-61
2022/11/16 03:17:54;;;;;;;;;2.25;1.00;;;;;10.52;75.73;99355.91;4994748;28;45366;-61
2022/11/16 03:20:25;;;;;;;;;1.25;1.00;;;;;10.73;75.68;99396.63;4961471;28;45333;-61
2022/11/16 03:22:59;;;;;;;;;0.20;0.20;;;;;10.78;75.54;99400.28;4977963;28;45462;-60
2022/11/16 03:25:27;;;;;;;;;0.20;0.20;;;;;10.52;75.22;99355.91;5013076;28;46431;-60
2022/11/16 03:27:55;;;;;;;;;0.20;0.20;;;;;10.75;75.28;99403.53;4981130;28;45468;-60
2022/11/16 03:30:22;;;;;;;;;0.00;0.00;;;;;10.76;75.47;99396.13;4997155;28;45428;-61
2022/11/16 03:33:06;;;;;;;;;0.80;0.80;;;;;10.55;75.54;99352.69;4981318;28;45416;-61
2022/11/16 03:35:37;;;;;;;;;0.40;0.40;;;;;10.72;75.14;99382.06;5015062;28;46719;-61
2022/11/16 03:38:03;;;;;;;;;0.40;0.40;;;;;10.47;74.68;99347.59;4964499;28;45593;-61
2022/11/16 03:40:30;;;;;;;;;1.00;0.75;;;;;10.65;75.57;99386.88;4959546;28;45478;-59
2022/11/16 03:42:56;;;;;;;;;1.00;1.00;;;;;10.56;75.24;99361.72;4977502;28;45648;-61
2022/11/16 03:45:21;;;;;;;;;1.00;1.00;;;;;10.63;75.21;99375.31;4977405;28;46869;-60
2022/11/16 03:47:46;;;;;;;;;2.00;0.00;;;;;10.66;75.64;99372.91;4995530;28;45474;-61
2022/11/16 03:50:12;;;;;;;;;1.00;1.00;;;;;10.63;75.38;99370.66;4977545;28;45310;-61
2022/11/16 03:52:38;;;;;;;;;0.00;0.00;;;;;10.60;74.90;99367.56;4977498;28;45411;-59
2022/11/16 03:55:04;;;;;;;;;2.50;1.25;;;;;10.45;75.16;99347.00;4977297;28;45409;-61
2022/11/16 03:57:30;;;;;;;;;3.40;1.00;;;;;10.50;74.89;99362.72;4994865;28;45325;-60
2022/11/16 03:59:55;;;;;;;;;1.00;0.50;;;;;10.48;75.71;99365.72;4995262;28;45297;-61
2022/11/16 04:02:21;;;;;;;;;0.00;0.00;;;;;10.41;75.77;99357.59;4995062;28;45302;-61
2022/11/16 04:24:12;;;;;;;;;1.20;1.00;;;;;10.25;76.91;99361.94;4986391;28;45455;-60
2022/11/16 04:29:23;;;;;;;;;0.60;0.60;;;;;10.17;77.08;99356.84;5000391;28;45768;-60
2022/11/16 04:40:01;;;;;;;;;3.00;1.00;;;;;10.13;77.75;99341.94;5017240;28;45362;-61
2022/11/16 04:42:27;;;;;;;;;3.00;2.00;;;;;10.10;77.40;99351.53;4983440;28;45306;-60
2022/11/16 04:47:36;;;;;;;;;0.00;0.00;;;;;10.19;77.58;99351.13;5017097;28;45792;-61
2022/11/16 04:50:02;;;;;;;;;2.00;1.00;;;;;10.24;77.67;99346.56;5017225;28;45242;-60
2022/11/16 04:52:27;;;;;;;;;1.00;0.00;;;;;10.27;77.57;99345.25;5017468;28;45410;-61
2022/11/16 04:54:53;;;;;;;;;1.00;1.00;;;;;10.26;77.61;99338.09;5017831;28;45605;-60
2022/11/16 04:57:18;;;;;;;;;1.25;0.25;;;;;10.29;76.88;99351.31;5016972;28;45559;-61
2022/11/16 04:59:44;;;;;;;;;2.00;1.00;;;;;10.08;77.10;99311.72;4999498;28;45328;-61
2022/11/16 05:02:10;;;;;;;;;2.25;1.00;;;;;9.84;76.49;99274.25;5017263;28;45383;-61
2022/11/16 05:04:36;;;;;;;;;3.00;0.75;;;;;10.26;77.64;99346.34;5017317;28;45399;-61
2022/11/16 05:07:02;;;;;;;;;0.80;0.80;;;;;10.09;77.36;99307.91;5016649;28;46043;-60
2022/11/16 05:09:27;;;;;;;;;2.00;0.25;;;;;10.27;77.68;99345.25;5017398;28;45344;-61
2022/11/16 05:11:53;;;;;;;;;0.00;0.00;;;;;10.27;78.13;99343.34;5017089;28;45369;-60
2022/11/16 05:14:18;;;;;;;;;0.75;0.75;;;;;10.28;78.06;99346.91;5017261;28;45310;-62
2022/11/16 05:16:44;;;;;;;;;1.50;1.00;;;;;10.30;78.01;99331.06;5016919;28;46406;-60
2022/11/16 05:21:56;;;;;;;;;1.00;1.00;;;;;10.48;77.85;99338.28;5016949;28;45281;-61
2022/11/16 05:24:34;;;;;;;;;3.00;2.00;;;;;10.28;78.16;99298.41;4991367;28;45510;-61
2022/11/16 05:27:04;;;;;;;;;6.40;1.00;;;;;10.50;77.50;99335.28;4996398;28;45579;-60
2022/11/16 05:29:30;;;;;;;;;1.00;1.00;;;;;10.49;77.68;99330.88;4964905;28;45908;-61
2022/11/16 05:31:59;;;;;;;;;1.60;0.60;;;;;10.48;77.28;99327.31;5013231;28;45403;-61
2022/11/16 05:34:25;;;;;;;;;1.60;1.60;;;;;10.46;78.20;99339.59;5015768;28;45217;-61
2022/11/16 05:36:51;;;;;;;;;2.25;2.25;;;;;10.49;77.93;99336.38;4998969;28;45463;-62
2022/11/16 05:39:18;;;;;;;;;1.00;1.00;;;;;10.48;77.42;99326.47;5016325;28;45403;-61
2022/11/16 05:41:44;;;;;;;;;2.80;2.00;;;;;10.48;78.33;99331.97;5016748;28;45395;-61
2022/11/16 05:44:09;;;;;;;;;2.00;2.00;;;;;10.26;77.74;99291.50;5017120;28;45245;-61
2022/11/16 05:46:35;;;;;;;;;0.00;0.00;;;;;10.45;77.49;99319.56;5016496;28;46661;-61
2022/11/16 05:49:00;;;;;;;;;4.75;1.25;;;;;10.46;77.85;99329.44;5016554;28;45326;-61
2022/11/16 05:51:26;;;;;;;;;1.00;1.00;;;;;10.50;78.36;99327.03;4998589;28;45395;-61
2022/11/16 05:53:51;;;;;;;;;1.00;1.00;;;;;10.52;78.70;99333.16;5016842;28;45304;-61
2022/11/16 05:56:17;;;;;;;;;1.50;1.50;;;;;10.54;78.46;99328.22;4998517;28;46370;-61
2022/11/16 05:58:43;;;;;;;;;1.00;1.00;;;;;10.48;77.96;99326.47;4998807;28;45461;-61
2022/11/16 06:01:09;;;;;;;;;1.00;1.00;;;;;10.44;78.36;99326.97;5016620;28;45473;-61
2022/11/16 06:03:35;;;;;;;;;4.20;1.60;;;;;10.49;78.13;99322.66;4999214;28;45780;-61
2022/11/16 06:06:01;;;;;;;;;2.00;2.00;;;;;10.28;78.04;99300.28;5016013;28;45985;-61
2022/11/16 06:08:27;;;;;;;;;4.00;1.60;;;;;10.46;78.86;99337.69;5016321;28;45407;-61
2022/11/16 06:10:52;;;;;;;;;1.00;1.00;;;;;10.19;78.97;99297.13;5016774;28;45296;-61
2022/11/16 06:13:18;;;;;;;;;2.25;2.00;;;;;10.23;78.81;99300.19;5016304;28;45256;-61
2022/11/16 06:15:44;;;;;;;;;4.00;2.50;;;;;10.35;78.96;99322.09;4998497;28;46877;-61
2022/11/16 06:18:09;;;;;;;;;2.00;2.00;;;;;10.41;79.09;99335.66;5016077;28;45370;-61
2022/11/16 06:20:36;;;;;;;;;3.00;2.75;;;;;10.34;79.51;99320.44;4998377;28;45352;-61
2022/11/16 06:23:02;;;;;;;;;2.80;1.60;;;;;10.24;78.90;99307.38;5016266;28;45340;-61
2022/11/16 06:25:29;;;;;;;;;4.25;2.00;;;;;10.38;78.92;99333.41;4999852;28;47257;-61
2022/11/16 06:27:55;;;;;;;;;1.60;1.60;;;;;10.36;79.38;99337.47;4995790;28;45404;-60
2022/11/16 06:30:21;;;;;;;;;2.50;1.50;;;;;10.36;79.41;99337.47;4996354;28;45455;-61
2022/11/16 06:32:46;;;;;;;;;0.50;0.50;;;;;10.34;78.63;99336.91;4995640;28;45622;-61
2022/11/16 06:35:11;;;;;;;;;2.75;1.75;;;;;10.33;78.80;99333.31;4978303;28;46478;-61
2022/11/16 06:37:37;;;;;;;;;1.25;1.25;;;;;10.31;79.34;99327.25;4995647;28;45456;-62
2022/11/16 06:40:06;;;;;;;;;1.25;1.00;;;;;10.02;79.06;99286.94;4996181;28;45362;-60
2022/11/16 06:42:31;;;;;;;;;1.00;1.00;;;;;10.25;78.72;99325.47;4978552;28;45545;-60
2022/11/16 06:44:57;;;;;;;;;16.75;10.50;;;;;10.23;79.50;99322.97;4995859;28;45225;-60
2022/11/16 06:47:22;;;;;;;;;2.50;1.75;;;;;10.25;79.53;99322.75;4995531;28;45372;-60
2022/11/16 06:49:48;;;;;;;;;1.75;1.00;;;;;10.25;78.91;99322.75;4996039;28;45277;-60
2022/11/16 06:52:13;;;;;;;;;1.75;1.75;;;;;10.22;79.07;99318.56;4995113;28;45368;-61
2022/11/16 06:54:39;;;;;;;;;2.75;2.00;;;;;10.23;79.38;99319.38;4995852;28;45611;-61
2022/11/16 06:57:04;;;;;;;;;1.00;1.00;;;;;9.96;78.79;99284.31;4995644;28;45336;-60
2022/11/16 06:59:30;;;;;;;;;2.00;2.00;;;;;10.21;79.59;99327.03;4995938;28;45622;-60
2022/11/16 07:01:55;;;;;;;;;2.50;1.25;;;;;10.23;79.81;99327.63;4977891;28;45439;-60
2022/11/16 07:04:21;;;;;;;;;2.25;2.25;;;;;10.23;79.70;99320.22;4995363;28;46222;-60
2022/11/16 07:06:46;;;;;;;;;3.75;2.50;;;;;10.25;79.15;99322.75;4995551;28;45475;-61
2022/11/16 07:09:12;;;;;;;;;5.00;2.00;;;;;10.11;79.44;99292.03;4995505;28;45433;-61
2022/11/16 07:11:38;;;;;;;;;3.00;1.60;;;;;10.26;79.50;99324.41;4995261;28;45532;-61
2022/11/16 07:14:03;;;;;;;;;4.00;1.00;;;;;10.23;79.01;99322.13;4995281;28;45477;-60
2022/11/16 07:16:29;;;;;;;;;3.00;1.25;;;;;10.04;79.22;99305.91;4995341;28;45301;-61
2022/11/16 07:18:58;;;;;;;;;3.00;2.00;;;;;10.03;79.77;99295.97;4995165;28;45279;-60
2022/11/16 07:21:23;;;;;;;;;2.40;1.40;;;;;10.24;80.13;99329.31;4985530;28;45876;-60
2022/11/16 07:23:49;;;;;;;;;7.25;2.00;;;;;10.31;79.52;99346.44;5001750;28;46307;-60
2022/11/16 07:26:14;;;;;;;;;6.50;4.00;;;;;10.29;80.32;99340.34;4976589;28;45383;-60
2022/11/16 07:28:40;;;;;;;;;2.00;2.00;;;;;10.33;79.63;99344.28;4977073;28;45388;-61
2022/11/16 07:31:08;;;;;;;;;2.00;2.00;;;;;10.36;79.24;99337.47;4977839;28;45423;-60
2022/11/16 07:33:34;;;;;;;;;7.40;4.00;;;;;10.40;79.42;99344.97;4994691;28;45684;-61
2022/11/16 07:36:01;;;;;;;;;2.25;2.25;;;;;10.41;79.69;99335.66;4995175;28;45250;-61
2022/11/16 07:38:27;;;;;;;;;6.20;2.60;;;;;10.42;79.41;99334.59;4960987;28;45338;-61
2022/11/16 07:40:52;;;;;;;;;2.00;2.00;;;;;10.33;79.80;99314.13;4995507;28;45410;-60
2022/11/16 07:43:18;;;;;;;;;5.00;1.75;;;;;10.46;79.96;99334.13;4976903;28;47481;-60
2022/11/16 07:45:43;;;;;;;;;5.00;3.00;;;;;10.41;79.53;99324.69;4977470;28;45368;-60
2022/11/16 07:48:09;;;;;;;;;2.50;1.50;;;;;10.49;80.17;99330.88;4977674;28;45999;-65
2022/11/16 07:50:35;;;;;;;;;3.00;3.00;;;;;10.33;80.45;99303.16;4995334;28;45408;-61
2022/11/16 07:53:00;;;;;;;;;6.60;4.40;;;;;10.57;80.01;99330.50;4994795;28;46287;-61
2022/11/16 07:55:30;;;;;;;;;3.00;3.00;;;;;10.47;79.35;99311.94;4995212;28;45540;-60
2022/11/16 07:57:57;;;;;;;;;4.40;4.00;;;;;10.56;80.36;99324.16;4994582;28;45321;-61
2022/11/16 08:00:23;;;;;;;;;5.40;2.20;;;;;10.60;79.97;99330.00;4977784;28;45651;-61
2022/11/16 08:02:49;;;;;;;;;2.00;2.00;;;;;10.60;80.00;99340.13;4995152;28;46308;-61
2022/11/16 08:05:14;;;;;;;;;7.00;6.50;;;;;10.61;80.39;99331.66;4997973;28;45375;-60
2022/11/16 08:07:40;;;;;;;;;3.75;2.00;;;;;10.63;80.30;99332.25;4998393;28;45407;-60
2022/11/16 08:10:05;;;;;;;;;4.75;4.75;;;;;10.75;80.04;99329.44;4998604;28;45307;-61
2022/11/16 08:12:31;;;;;;;;;8.60;4.00;;;;;10.82;80.16;99332.00;4997894;28;47309;-61
2022/11/16 08:14:56;;;;;;;;;4.75;2.00;;;;;10.84;79.91;99344.41;4998123;28;45369;-61
2022/11/16 08:17:22;;;;;;;;;2.25;2.25;;;;;10.87;79.85;99339.53;4964581;28;45391;-60
2022/11/16 08:19:47;;;;;;;;;9.00;5.00;;;;;10.87;80.08;99328.53;4998712;28;45619;-60
2022/11/16 08:22:13;;;;;;;;;6.50;5.00;;;;;10.89;79.58;99323.63;4997957;28;45950;-62
2022/11/16 08:24:38;;;;;;;;;9.00;5.00;;;;;10.97;79.95;99337.78;5006420;28;45365;-60
2022/11/16 08:27:04;;;;;;;;;2.00;2.00;;;;;11.01;79.54;99346.34;5017854;28;45370;-60
2022/11/16 08:29:29;;;;;;;;;6.50;4.00;;;;;10.84;80.02;99307.91;5017967;28;45452;-60
2022/11/16 08:31:55;;;;;;;;;8.50;6.00;;;;;10.97;79.48;99332.28;5017498;28;46541;-61
2022/11/16 08:34:20;;;;;;;;;7.75;7.00;;;;;11.01;80.07;99334.50;4999484;28;45306;-61
2022/11/16 08:36:46;;;;;;;;;5.00;3.75;;;;;10.98;79.99;99336.69;5017692;28;45333;-60
2022/11/16 08:39:12;;;;;;;;;3.00;3.00;;;;;11.00;80.24;99338.34;5017654;28;45245;-61
2022/11/16 08:41:37;;;;;;;;;4.00;3.00;;;;;11.01;80.01;99343.59;5017384;28;46303;-61
2022/11/16 08:44:03;;;;;;;;;3.50;2.25;;;;;11.06;80.43;99326.38;5017333;28;45555;-60
2022/11/16 08:46:28;;;;;;;;;7.00;4.00;;;;;11.07;79.69;99328.03;4999910;28;45910;-60
2022/11/16 08:48:55;;;;;;;;;5.00;3.50;;;;;10.77;80.04;99271.56;4999585;28;45747;-61
2022/11/16 08:51:21;;;;;;;;;3.80;2.00;;;;;10.96;80.14;99296.84;5016917;28;46127;-60
2022/11/16 08:53:48;;;;;;;;;3.25;2.25;;;;;11.21;80.11;99326.59;5017454;28;45792;-61
2022/11/16 08:56:13;;;;;;;;;3.20;2.20;;;;;11.09;80.06;99301.16;5017665;28;45316;-61
2022/11/16 08:58:42;;;;;;;;;8.25;4.00;;;;;11.37;79.84;99327.66;5017238;28;45625;-61
2022/11/16 09:01:18;;;;;;;;;3.40;3.00;;;;;11.44;79.50;99312.94;4999519;28;47532;-61
2022/11/16 09:03:44;;;;;;;;;6.80;3.00;;;;;11.49;79.63;99324.81;5017077;28;45420;-59
2022/11/16 09:06:10;;;;;;;;;2.00;2.00;;;;;11.57;79.20;99314.50;5017036;28;45497;-59
2022/11/16 09:08:36;;;;;;;;;3.00;3.00;;;;;11.41;79.43;99284.03;5016825;28;45415;-57
2022/11/16 09:11:06;;;;;;;;;1.80;1.00;;;;;11.63;79.34;99305.22;5017337;28;46702;-59
2022/11/16 09:13:32;;;;;;;;;3.00;2.60;;;;;11.54;79.26;99282.84;5016791;28;45233;-57
2022/11/16 09:15:58;;;;;;;;;3.00;0.50;;;;;11.71;78.68;99306.69;5015790;28;45237;-57
2022/11/16 09:18:24;;;;;;;;;3.00;1.00;;;;;11.40;78.71;99263.16;4999139;28;45616;-57
2022/11/16 09:20:49;;;;;;;;;1.75;1.75;;;;;11.73;78.81;99312.75;4999035;28;46616;-57
2022/11/16 09:23:15;;;;;;;;;3.00;3.00;;;;;11.75;78.51;99321.59;4973984;28;45279;-56
2022/11/16 09:25:41;;;;;;;;;2.00;0.80;;;;;11.56;78.70;99282.56;5016660;28;45494;-58
2022/11/16 09:28:07;;;;;;;;;4.00;3.00;;;;;11.73;78.47;99307.25;4998917;28;45560;-59
2022/11/16 09:30:33;;;;;;;;;4.00;3.00;;;;;11.78;78.78;99305.44;5016711;28;45435;-59
2022/11/16 09:32:59;;;;;;;;;3.00;2.00;;;;;11.85;78.41;99313.47;5016190;28;45450;-59
2022/11/16 09:35:24;;;;;;;;;2.50;1.50;;;;;11.33;78.24;99229.53;5016536;28;45347;-58
2022/11/16 09:37:50;;;;;;;;;8.00;3.00;;;;;11.89;78.34;99305.53;5016587;28;45439;-58
2022/11/16 09:40:15;;;;;;;;;1.75;1.50;;;;;11.92;78.16;99300.34;4998534;28;46080;-60
2022/11/16 09:42:44;;;;;;;;;3.25;2.00;;;;;11.93;77.71;99302.03;5016094;28;45203;-60
2022/11/16 09:45:31;;;;;;;;;3.40;1.80;;;;;11.93;78.31;99290.19;5016566;28;45435;-60
2022/11/16 09:48:00;;;;;;;;;3.60;1.60;;;;;11.72;78.00;99248.72;4998502;28;45464;-59
2022/11/16 09:50:52;;;;;;;;;5.00;3.80;;;;;11.75;78.15;99237.22;4998809;28;45386;-59
2022/11/16 09:53:39;;;;;;;;;6.60;2.80;;;;;11.92;77.44;99263.81;4997742;28;45255;-59
2022/11/16 09:56:16;;;;;;;;;3.00;1.20;;;;;12.15;77.48;99300.38;4982643;28;45302;-60
2022/11/16 09:59:06;;;;;;;;;3.00;1.80;;;;;12.18;77.61;99297.94;4966906;28;45418;-58
2022/11/16 10:01:37;;;;;;;;;4.60;3.00;;;;;12.13;77.50;99273.16;5016288;28;46969;-60
2022/11/16 10:04:10;;;;;;;;;4.00;2.00;;;;;12.28;77.43;99288.16;4998278;28;45642;-60
2022/11/16 10:06:59;;;;;;;;;1.40;1.40;;;;;12.31;77.42;99282.13;4998141;28;45384;-60
2022/11/16 10:09:25;;;;;;;;;3.80;1.80;;;;;12.30;77.00;99263.97;4986303;28;45581;-59
2022/11/16 10:12:01;;;;;;;;;1.75;1.75;;;;;12.17;76.70;99240.47;5015872;28;46567;-61
2022/11/16 10:14:50;;;;;;;;;4.20;2.20;;;;;12.47;76.40;99269.34;4990262;28;45893;-60
2022/11/16 10:17:37;;;;;;;;;3.20;2.40;;;;;12.38;76.09;99251.66;4975702;28;45774;-59
2022/11/16 10:20:03;;;;;;;;;2.80;2.60;;;;;12.62;75.90;99290.69;4995048;28;45324;-59
2022/11/16 10:22:46;;;;;;;;;1.20;1.20;;;;;12.64;75.90;99305.00;4994960;28;45414;-60
2022/11/16 10:25:16;;;;;;;;;2.60;2.00;;;;;12.74;75.24;99307.03;4949939;28;48242;-58
2022/11/16 10:27:50;;;;;;;;;3.60;2.60;;;;;12.81;75.10;99301.31;4983817;28;45561;-60
2022/11/16 10:30:19;;;;;;;;;2.80;2.00;;;;;12.97;74.18;99296.75;4977805;28;45395;-60
2022/11/16 10:32:47;;;;;;;;;1.00;1.00;;;;;12.90;73.91;99272.19;4976848;28;45381;-60
2022/11/16 10:35:38;;;;;;;;;4.20;3.00;;;;;12.77;73.19;99251.44;5006574;28;45673;-60
2022/11/16 10:38:10;;;;;;;;;1.40;1.00;;;;;13.06;73.25;99284.16;5013370;28;45359;-60
2022/11/16 10:40:36;;;;;;;;;1.20;1.20;;;;;12.63;72.52;99214.47;4964611;28;45764;-60
2022/11/16 10:43:17;;;;;;;;;1.00;1.00;;;;;13.25;72.21;99292.81;5013888;28;45513;-61
2022/11/16 10:46:16;;;;;;;;;2.00;1.40;;;;;13.31;71.78;99295.59;5005090;28;45375;-61
2022/11/16 10:49:06;;;;;;;;;2.60;1.40;;;;;13.35;71.68;99300.31;4977175;28;45520;-61
2022/11/16 10:51:31;;;;;;;;;2.20;2.00;;;;;13.19;71.62;99260.84;5008756;28;45439;-62
2022/11/16 10:53:57;;;;;;;;;0.00;0.00;;;;;13.23;71.46;99255.63;5013862;28;45332;-61
2022/11/16 10:56:39;;;;;;;;;1.75;0.50;;;;;13.29;71.16;99274.66;5014379;28;45336;-60
2022/11/16 10:59:12;;;;;;;;;2.80;1.80;;;;;13.06;70.86;99223.56;4996974;28;45285;-62
2022/11/16 11:02:18;;;;;;;;;1.60;0.40;;;;;13.32;71.37;99254.00;5014883;28;45427;-61
2022/11/16 11:04:37;;;;;;;;;1.40;1.40;;;;;13.39;70.66;99217.94;4995557;28;47134;-59
2022/11/16 11:07:23;;;;;;;;;4.20;1.20;;;;;13.83;69.94;99253.44;4996266;28;45678;-59
2022/11/16 11:09:52;;;;;;;;;2.00;2.00;;;;;14.07;69.08;99254.91;4995897;28;45521;-61
2022/11/16 11:12:37;;;;;;;;;1.00;1.00;;;;;14.21;68.22;99249.69;5013772;28;45443;-60
2022/11/16 11:15:12;;;;;;;;;3.60;2.40;;;;;14.45;67.32;99243.66;5003763;28;46374;-59
2022/11/16 11:17:39;;;;;;;;;1.20;0.80;;;;;15.18;65.73;99241.72;4993978;28;45448;-60
2022/11/16 11:20:07;;;;;;;;;2.80;1.00;;;;;15.07;65.11;99237.31;4993971;28;45399;-59
2022/11/16 11:22:33;;;;;;;;;1.40;0.40;;;;;14.61;65.76;99211.34;4976111;28;45798;-61
2022/11/16 11:25:00;;;;;;;;;4.00;3.00;;;;;14.48;66.54;99223.78;4979807;28;47555;-61
2022/11/16 11:27:29;;;;;;;;;3.80;1.00;;;;;14.49;66.65;99229.03;4936450;28;45792;-60
2022/11/16 11:29:57;;;;;;;;;4.60;3.40;;;;;14.40;66.86;99227.91;4979795;28;45512;-61
2022/11/16 11:32:25;;;;;;;;;1.00;0.60;;;;;14.70;65.91;99217.16;4993676;28;45386;-62
2022/11/16 11:34:53;;;;;;;;;2.20;1.60;;;;;15.01;65.16;99212.44;4959901;28;45452;-60
2022/11/16 11:37:29;;;;;;;;;4.00;1.60;;;;;15.36;64.07;99209.06;4959283;28;45388;-60
2022/11/16 11:40:17;;;;;;;;;1.20;1.20;;;;;15.47;63.18;99216.19;4992658;28;45683;-61
2022/11/16 11:42:59;;;;;;;;;2.40;1.80;;;;;15.16;64.06;99227.38;4993535;28;45377;-61
2022/11/16 11:45:37;;;;;;;;;1.60;1.60;;;;;15.07;64.24;99217.97;4977100;28;46425;-62
2022/11/16 11:48:35;;;;;;;;;4.80;4.00;;;;;15.14;64.28;99210.22;5006517;28;45831;-62
2022/11/16 11:51:02;;;;;;;;;2.00;2.00;;;;;15.15;63.88;99204.41;4964925;28;45621;-62
2022/11/16 11:53:44;;;;;;;;;1.00;1.00;;;;;15.16;64.28;99214.34;4964617;28;45466;-61
2022/11/16 11:56:10;;;;;;;;;5.20;3.20;;;;;15.10;64.50;99201.66;4979119;28;45646;-61
2022/11/16 11:58:37;;;;;;;;;1.00;1.00;;;;;14.97;64.45;99207.78;5009926;28;45454;-62
2022/11/16 12:01:30;;;;;;;;;1.80;1.00;;;;;14.73;64.97;99206.38;5014621;28;45264;-60
2022/11/16 12:04:34;;;;;;;;;1.20;1.20;;;;;14.73;65.50;99198.09;4996822;28;45421;-64
2022/11/16 12:07:21;;;;;;;;;1.60;1.60;;;;;14.82;64.68;99197.56;5014211;28;46122;-61
2022/11/16 12:09:56;;;;;;;;;4.00;3.00;;;;;14.71;64.53;99166.34;4996815;28;45457;-61
2022/11/16 12:12:44;;;;;;;;;4.00;3.00;;;;;14.84;64.33;99187.09;4974256;28;45444;-63
2022/11/16 12:15:28;;;;;;;;;3.80;2.00;;;;;14.84;64.43;99198.13;4985814;28;45457;-60
2022/11/16 12:17:59;;;;;;;;;1.00;1.00;;;;;14.82;64.29;99195.63;4994813;28;45503;-60
2022/11/16 12:20:42;;;;;;;;;2.20;2.00;;;;;14.60;64.45;99176.56;4994515;28;45475;-61
2022/11/16 12:23:20;;;;;;;;;2.20;2.00;;;;;14.62;64.11;99177.16;4995099;28;45365;-60